LIBR/BDS METAR and TAF weather

Enter ICAO airport designator
Station Type Date Time Source
LIBR METAR 2019/04/24 15:50 UTC NOAA

LIBR 241550Z 17010KT CAVOK 23/12 Q1017


Station Type Date Time Source
LIBR Decoded METAR 2019/04/24 15:50 UTC NOAA

Brindisi, Italy (LIBR) 40-39N 017-57E 10M
Apr 24, 2019 - 11:50 AM EDT / 2019.04.24 1550 UTC
Wind: from the S (170 degrees) at 12 MPH (10 KT):0
Visibility: greater than 7 mile(s):0
Temperature: 73 F (23 C)
Dew Point: 53 F (12 C)
Relative Humidity: 49%
Pressure (altimeter): 30.03 in. Hg (1017 hPa)
ob: LIBR 241550Z 17010KT CAVOK 23/12 Q1017
cycle: 16

Station Type Date Time Source
LIBR TAF 2019/04/24 12:21 UTC NOAA

TAF LIBR 241100Z 2412/2512 17014KT CAVOK

Example: see airport list